Pagrindinis puslapis
METAR-TAF:

METAR-TAF

Oro uostai :

Kosraė, Mikronezija

platuma: 05-21N, ilguma: 162-57E, Aukštis: 3 m

Dabartinis oras

Ataskaita buvo paskelbta 4 valandos ir 51 minutes, ne 02:50 UTC
Vėjas 10 kt iš Šiaurės Rytų
Temperatūra 31°C
Drėgmė 71%
Slėgis 1013 hPa
Matomumas: 16.1 km
Išsisklaidę debesys ne aukštis 2200 ft, aukštai iškilę kamuoliniai debesys.
Su prošvaistėmis ne aukštis 13000 ft
Su prošvaistėmis ne aukštis 30000 ft

METAR: PTSA 270250Z 05010KT 10SM SCT022TCU BKN130 BKN300 31/25 A2990 RMK TCU NE LAST

Laikas: 18:41 (07:41 UTC)

Prognozė

Ataskaita buvo paskelbta 2 valandos ir 18 minutes, ne 05:23 UTC
Prognozė galioja nuo 27 metu 06 UTC su 28 metu 06 UTC
Vėjas 10 kt iš Rytų/Šiaurės Rytų
Matomumas: 10 km
Išsisklaidę debesys ne aukštis 3000 ft
Su prošvaistėmis ne aukštis 5000 ft

TAF: PTSA 270523Z 2706/2806 06010KT P6SM SCT030 BKN050

Orai ataskaitas ir orų prognozės (METAR, TAF).

turimą stotys yra geltonos ir raudonos taškus žemėlapyje.

Perkelti pele per norėdami pamatyti stoties vardą.

Tada spustelėkite, norėdami matyti oro stebėjimo ir prognozės.

Norėdami pakeisti žemėlapį: spustelėkite ant žalios mygtukų su juodo kryžiaus žemyn,; žalią mygtuką su brūkšneliu, jei norite nutolinti; arba žalių rodyklių gretimoms žemėlapius.


METAR-TAF: